aviador You're here:

KMWA Decoded Metar

MARION REGIONAL in IL, USA
Report Time2017-09-26 03:35:00
UTC Time2017-09-26 03:48:46
Flight Rules vfr VFR
WindCalm
Visibility9999 m
Phenomena:N/A
Clouds:N/A
Expected CloudBase > 2,400 ft AGL from Temp-Dew spread
CeilingNone
Temp24°C (ISA +10)
Dew Point18°C (69% RH)
QNH1015 hPa
Density Alt1,834 ft
Elevation472 ft
Report Wrong Elevation
Raw Report
METAR KMWA 260335Z AUTO 00000KT 10SM CLR 24/18 A2997 RMK AO2=

Extra information for KMWA:More info

Metar Taf Metar & Taf Last 4 Metars F.Rules Stats Wind Profile Meteogram Temp Stats Airport Information Weather charts Add Link Nearby VenuesMetar ALERT Operation Metar Decoded Social comments

AIRNAV info for KMWA